sim
Sign-in with your pilot id or email,
or register
Callsign
Passwort

Schedule Details

Flight Number: OEO2777
Departure: Dubrovnik Airport (LDDU) at 16:55
Arrival: Munich Airport (EDDM) at 18:40

Weather Information
Getting current METAR information for LDDU 211930Z 08004KT CAVOK 22/20 Q1016 NOSIG
Getting current METAR information for EDDM 211950Z 00000KT CAVOK 13/12 Q1016 NOSIG

Schedule Frequency

Route Map